createdAt,value
2018-07-02T00:00:02.863Z,0
2018-07-02T00:01:03.573Z,0
2018-07-02T00:02:04.287Z,0
2018-07-02T00:03:04.998Z,0
2018-07-02T00:04:05.724Z,0
2018-07-02T00:05:06.436Z,0
2018-07-02T00:06:07.149Z,0
2018-07-02T00:07:07.860Z,0
2018-07-02T00:08:08.572Z,0
2018-07-02T00:09:09.282Z,0
2018-07-02T00:10:09.993Z,0
2018-07-02T00:11:10.706Z,0
2018-07-02T00:12:11.418Z,0
2018-07-02T00:13:12.143Z,0
2018-07-02T00:14:12.855Z,0
2018-07-02T00:15:13.566Z,0
2018-07-02T00:16:14.277Z,0
2018-07-02T00:17:14.990Z,0
2018-07-02T00:18:15.702Z,0
2018-07-02T00:19:16.414Z,0
2018-07-02T00:20:17.126Z,0
2018-07-02T00:21:17.838Z,0
2018-07-02T00:22:18.562Z,0
2018-07-02T00:23:19.277Z,0
2018-07-02T00:24:19.986Z,0
2018-07-02T00:25:20.711Z,0
2018-07-02T00:26:21.422Z,0
2018-07-02T00:27:22.134Z,0
2018-07-02T00:29:23.475Z,0
2018-07-02T00:30:24.184Z,0
2018-07-02T00:31:24.895Z,0
2018-07-02T00:32:25.607Z,0
2018-07-02T00:33:26.319Z,0
2018-07-02T00:34:27.031Z,0
2018-07-02T00:35:27.753Z,0
2018-07-02T00:36:28.465Z,0
2018-07-02T00:37:29.177Z,0
2018-07-02T00:38:29.888Z,0
2018-07-02T00:39:30.613Z,0
2018-07-02T00:40:31.325Z,0
2018-07-02T00:41:32.038Z,0
2018-07-02T00:42:32.796Z,0
2018-07-02T00:43:33.469Z,0
2018-07-02T00:44:34.181Z,0
2018-07-02T00:45:34.908Z,0
2018-07-02T00:46:35.616Z,0
2018-07-02T00:47:36.329Z,0
2018-07-02T00:48:37.041Z,0
2018-07-02T00:49:37.766Z,0
2018-07-02T00:50:38.479Z,0
2018-07-02T00:51:39.193Z,0
2018-07-02T00:52:39.907Z,0
2018-07-02T00:53:40.619Z,0
2018-07-02T00:54:41.333Z,0
2018-07-02T00:55:42.052Z,0
2018-07-02T00:56:42.777Z,0
2018-07-02T00:57:43.489Z,0
2018-07-02T00:58:44.201Z,0
2018-07-02T00:59:44.925Z,0
2018-07-02T01:00:45.636Z,0
2018-07-02T01:01:46.348Z,0
2018-07-02T01:02:47.066Z,0
2018-07-02T01:03:47.780Z,0
2018-07-02T01:04:48.493Z,0
2018-07-02T01:05:49.204Z,0
2018-07-02T01:06:49.915Z,0
2018-07-02T01:07:50.628Z,0
2018-07-02T01:08:51.345Z,0
2018-07-02T01:09:52.052Z,0
2018-07-02T01:10:52.764Z,0
2018-07-02T01:11:53.476Z,0
2018-07-02T01:12:54.189Z,0
2018-07-02T01:13:54.900Z,0
2018-07-02T01:14:55.614Z,0
2018-07-02T01:15:56.327Z,0
2018-07-02T01:16:57.033Z,0
2018-07-02T01:17:57.757Z,0
2018-07-02T01:18:58.482Z,0
2018-07-02T01:19:59.192Z,0
2018-07-02T01:20:59.905Z,0
2018-07-02T01:22:00.617Z,0
2018-07-02T01:23:01.331Z,0
2018-07-02T01:24:02.042Z,0
2018-07-02T01:25:02.756Z,0
2018-07-02T01:26:03.468Z,0
2018-07-02T01:27:04.193Z,0
2018-07-02T01:28:04.903Z,0
2018-07-02T01:29:05.616Z,0
2018-07-02T01:30:06.328Z,0
2018-07-02T01:31:07.039Z,0
2018-07-02T01:32:07.755Z,0
2018-07-02T01:33:08.468Z,0
2018-07-02T01:34:09.193Z,0
2018-07-02T01:35:09.910Z,0
2018-07-02T01:36:10.620Z,0
2018-07-02T01:37:11.332Z,0
2018-07-02T01:38:12.046Z,0
2018-07-02T01:39:12.758Z,0
2018-07-02T01:40:13.477Z,0
2018-07-02T01:41:14.191Z,0
2018-07-02T01:42:14.910Z,0
2018-07-02T01:43:15.621Z,0
2018-07-02T01:44:16.333Z,0
2018-07-02T01:45:17.056Z,0
2018-07-02T01:46:17.780Z,0
2018-07-02T01:47:18.506Z,0
2018-07-02T01:48:19.218Z,0
2018-07-02T01:49:19.932Z,0
2018-07-02T01:50:20.655Z,0
2018-07-02T01:51:21.366Z,0
2018-07-02T01:52:22.079Z,0
2018-07-02T01:53:22.790Z,0
2018-07-02T01:54:23.516Z,0
2018-07-02T01:55:24.228Z,0
2018-07-02T01:56:24.942Z,0
2018-07-02T01:57:25.663Z,0
2018-07-02T01:58:26.376Z,0
2018-07-02T01:59:27.088Z,0
2018-07-02T02:00:27.800Z,0
2018-07-02T02:01:28.523Z,0
2018-07-02T02:02:29.235Z,0
2018-07-02T02:03:29.948Z,0
2018-07-02T02:04:30.659Z,0
2018-07-02T02:05:31.371Z,0
2018-07-02T02:06:32.081Z,0
2018-07-02T02:07:32.792Z,0
2018-07-02T02:08:33.503Z,0
2018-07-02T02:09:34.231Z,0
2018-07-02T02:10:34.939Z,0
2018-07-02T02:11:35.651Z,0
2018-07-02T02:12:36.364Z,0
2018-07-02T02:13:37.075Z,0
2018-07-02T02:14:37.783Z,0
2018-07-02T02:15:38.496Z,0
2018-07-02T02:16:39.206Z,0
2018-07-02T02:17:39.931Z,0
2018-07-02T02:18:40.658Z,0
2018-07-02T02:19:41.370Z,0
2018-07-02T02:20:42.094Z,0
2018-07-02T02:21:42.806Z,0
2018-07-02T02:22:43.520Z,0
2018-07-02T02:23:44.230Z,0
2018-07-02T02:24:44.941Z,0
2018-07-02T02:25:45.652Z,0
2018-07-02T02:26:46.365Z,0
2018-07-02T02:27:47.087Z,0
2018-07-02T02:28:47.801Z,0
2018-07-02T02:29:48.511Z,0
2018-07-02T02:30:49.234Z,0
2018-07-02T02:31:49.947Z,4
2018-07-02T02:32:50.660Z,4
2018-07-02T02:33:51.372Z,0
2018-07-02T02:34:52.083Z,0
2018-07-02T02:35:52.795Z,4
2018-07-02T02:36:53.507Z,4
2018-07-02T02:37:54.218Z,0
2018-07-02T02:38:54.930Z,4
2018-07-02T02:39:55.642Z,4
2018-07-02T02:40:56.365Z,4
2018-07-02T02:41:57.078Z,4
2018-07-02T02:42:57.790Z,4
2018-07-02T02:43:58.502Z,8
2018-07-02T02:44:59.214Z,8
2018-07-02T02:45:59.924Z,8
2018-07-02T02:47:00.644Z,8
2018-07-02T02:48:01.356Z,8
2018-07-02T02:49:02.070Z,12
2018-07-02T02:50:02.786Z,12
2018-07-02T02:51:03.493Z,16
2018-07-02T02:52:04.208Z,16
2018-07-02T02:53:04.918Z,20
2018-07-02T02:54:05.632Z,24
2018-07-02T02:55:06.359Z,24
2018-07-02T02:56:07.083Z,28
2018-07-02T02:57:07.793Z,36
2018-07-02T02:58:08.518Z,36
2018-07-02T02:59:09.231Z,40
2018-07-02T03:00:09.948Z,48
2018-07-02T03:01:10.662Z,48
2018-07-02T03:02:11.376Z,56
2018-07-02T03:03:12.088Z,64
2018-07-02T03:04:12.799Z,68
2018-07-02T03:05:13.517Z,76
2018-07-02T03:06:14.235Z,84
2018-07-02T03:07:14.962Z,92
2018-07-02T03:08:15.676Z,100
2018-07-02T03:09:16.389Z,108
2018-07-02T03:10:17.103Z,116
2018-07-02T03:11:17.815Z,128
2018-07-02T03:12:18.527Z,140
2018-07-02T03:13:19.239Z,152
2018-07-02T03:14:19.953Z,164
2018-07-02T03:15:20.679Z,176
2018-07-02T03:16:21.408Z,188
2018-07-02T03:17:22.116Z,204
2018-07-02T03:18:22.839Z,216
2018-07-02T03:19:23.554Z,232
2018-07-02T03:20:24.319Z,248
2018-07-02T03:21:24.987Z,268
2018-07-02T03:22:25.710Z,280
2018-07-02T03:23:26.425Z,296
2018-07-02T03:24:27.139Z,312
2018-07-02T03:25:27.857Z,332
2018-07-02T03:26:28.569Z,348
2018-07-02T03:27:29.282Z,368
2018-07-02T03:28:30.001Z,388
2018-07-02T03:29:30.713Z,404
2018-07-02T03:30:31.451Z,424
2018-07-02T03:31:32.160Z,448
2018-07-02T03:32:32.888Z,464
2018-07-02T03:33:33.602Z,484
2018-07-02T03:34:34.327Z,504
2018-07-02T03:35:35.073Z,528
2018-07-02T03:36:35.788Z,544
2018-07-02T03:37:36.503Z,564
2018-07-02T03:38:37.217Z,584
2018-07-02T03:39:37.942Z,604
2018-07-02T03:40:38.667Z,628
2018-07-02T03:41:39.407Z,644
2018-07-02T03:42:40.122Z,668
2018-07-02T03:43:40.835Z,688
2018-07-02T03:44:41.549Z,708
2018-07-02T03:45:42.264Z,728
2018-07-02T03:46:42.991Z,748
2018-07-02T03:47:43.705Z,768
2018-07-02T03:48:44.421Z,788
2018-07-02T03:49:45.136Z,808
2018-07-02T03:50:45.851Z,828
2018-07-02T03:51:46.575Z,848
2018-07-02T03:52:47.290Z,864
2018-07-02T03:53:48.020Z,884
2018-07-02T03:54:48.744Z,904
2018-07-02T03:55:49.460Z,920
2018-07-02T03:56:50.175Z,944
2018-07-02T03:57:50.891Z,960
2018-07-02T03:58:51.607Z,980
2018-07-02T03:59:52.321Z,996
2018-07-02T04:00:53.038Z,1012
2018-07-02T04:01:53.757Z,1028
2018-07-02T04:02:54.480Z,1044
2018-07-02T04:03:55.198Z,1064
2018-07-02T04:04:55.926Z,1080
2018-07-02T04:05:56.641Z,1100
2018-07-02T04:06:57.356Z,1120
2018-07-02T04:07:58.073Z,1132
2018-07-02T04:08:58.800Z,1148
2018-07-02T04:09:59.517Z,1160
2018-07-02T04:11:00.232Z,1180
2018-07-02T04:12:00.967Z,1200
2018-07-02T04:13:01.710Z,1216
2018-07-02T04:14:02.387Z,1232
2018-07-02T04:15:03.101Z,1248
2018-07-02T04:16:03.823Z,1260
2018-07-02T04:17:04.540Z,1276
2018-07-02T04:18:05.256Z,1292
2018-07-02T04:19:05.971Z,1308
2018-07-02T04:20:06.688Z,1316
2018-07-02T04:21:07.405Z,1336
2018-07-02T04:22:08.120Z,1352
2018-07-02T04:23:08.837Z,1364
2018-07-02T04:24:09.554Z,1380
2018-07-02T04:25:10.271Z,1388
2018-07-02T04:26:10.988Z,1404
2018-07-02T04:27:11.704Z,1416
2018-07-02T04:28:12.434Z,1432
2018-07-02T04:29:13.147Z,1448
2018-07-02T04:30:13.862Z,1456
2018-07-02T04:31:14.582Z,1472
2018-07-02T04:32:15.297Z,1488
2018-07-02T04:33:16.015Z,1492
2018-07-02T04:34:16.772Z,1508
2018-07-02T04:35:17.458Z,1516
2018-07-02T04:36:18.174Z,1528
2018-07-02T04:37:18.889Z,1564
2018-07-02T04:38:19.619Z,1548
2018-07-02T04:39:20.335Z,1564
2018-07-02T04:40:21.051Z,1580
2018-07-02T04:41:21.774Z,1592
2018-07-02T04:42:22.492Z,1596
2018-07-02T04:43:23.208Z,1604
2018-07-02T04:44:23.935Z,1616
2018-07-02T04:45:24.651Z,1628
2018-07-02T04:46:25.370Z,1640
2018-07-02T04:47:26.086Z,1652
2018-07-02T04:48:26.803Z,1668
2018-07-02T04:49:27.515Z,1676
2018-07-02T04:50:28.231Z,1688
2018-07-02T04:51:28.948Z,1700
2018-07-02T04:52:29.666Z,1708
2018-07-02T04:53:30.380Z,1720
2018-07-02T04:54:31.100Z,1728
2018-07-02T04:55:31.826Z,1740
2018-07-02T04:56:32.543Z,1756
2018-07-02T04:57:33.258Z,1760
2018-07-02T04:58:33.986Z,1772
2018-07-02T04:59:34.750Z,1788
2018-07-02T05:00:35.428Z,1796
2018-07-02T05:01:36.145Z,1804
2018-07-02T05:02:36.873Z,1816
2018-07-02T05:03:37.589Z,1824
2018-07-02T05:04:38.305Z,1832
2018-07-02T05:05:39.025Z,1848
2018-07-02T05:06:39.738Z,1856
2018-07-02T05:07:40.500Z,1864
2018-07-02T05:08:41.171Z,1876
2018-07-02T05:09:41.890Z,1892
2018-07-02T05:10:42.606Z,1892
2018-07-02T05:11:43.324Z,1912
2018-07-02T05:12:44.040Z,1912
2018-07-02T05:13:44.772Z,1928
2018-07-02T05:14:45.488Z,1936
2018-07-02T05:15:46.200Z,1936
2018-07-02T05:16:46.931Z,1960
2018-07-02T05:17:47.811Z,1980
2018-07-02T05:18:48.361Z,1952
2018-07-02T05:19:49.089Z,2000
2018-07-02T05:20:49.806Z,2008
2018-07-02T05:21:50.522Z,2016
2018-07-02T05:22:51.240Z,2028
2018-07-02T05:23:51.956Z,2048
2018-07-02T05:24:52.673Z,2048
2018-07-02T05:25:53.403Z,2060
2018-07-02T05:26:54.249Z,1992
2018-07-02T05:27:54.838Z,2084
2018-07-02T05:28:55.555Z,2084
2018-07-02T05:29:56.285Z,2092
2018-07-02T05:30:57.052Z,2108
2018-07-02T05:31:57.742Z,2112
2018-07-02T05:32:58.462Z,2120
2018-07-02T05:33:59.179Z,2132
2018-07-02T05:34:59.896Z,2148
2018-07-02T05:36:00.613Z,2148
2018-07-02T05:37:01.331Z,2164
2018-07-02T05:38:02.045Z,2160
2018-07-02T05:39:02.773Z,2176
2018-07-02T05:40:03.490Z,2184
2018-07-02T05:41:04.207Z,2192
2018-07-02T05:42:04.923Z,2200
2018-07-02T05:43:05.654Z,2204
2018-07-02T05:44:06.371Z,2220
2018-07-02T05:45:07.090Z,2244
2018-07-02T05:46:07.807Z,2248
2018-07-02T05:47:08.532Z,2256
2018-07-02T05:48:09.250Z,2256
2018-07-02T05:49:09.967Z,2268
2018-07-02T05:50:10.684Z,2280
2018-07-02T05:51:11.404Z,2288
2018-07-02T05:52:12.121Z,2300
2018-07-02T05:53:12.835Z,2300
2018-07-02T05:54:13.551Z,2304
2018-07-02T05:55:14.270Z,2328
2018-07-02T05:56:14.988Z,2324
2018-07-02T05:57:15.872Z,2348
2018-07-02T05:58:16.433Z,2336
2018-07-02T05:59:17.153Z,2356
2018-07-02T06:00:17.923Z,2360
2018-07-02T06:01:18.600Z,2368
2018-07-02T06:02:19.318Z,2380
2018-07-02T06:03:20.035Z,2392
2018-07-02T06:04:20.751Z,2420
2018-07-02T06:05:21.470Z,2420
2018-07-02T06:06:22.189Z,2444
2018-07-02T06:07:22.920Z,2460
2018-07-02T06:08:23.643Z,2444
2018-07-02T06:09:24.358Z,2456
2018-07-02T06:10:25.076Z,2460
2018-07-02T06:11:25.795Z,2476
2018-07-02T06:12:26.516Z,2480
2018-07-02T06:13:27.245Z,2492
2018-07-02T06:14:27.974Z,2492
2018-07-02T06:15:28.693Z,2508
2018-07-02T06:16:29.488Z,2512
2018-07-02T06:17:30.128Z,2528
2018-07-02T06:18:30.849Z,2528
2018-07-02T06:19:31.568Z,2540
2018-07-02T06:20:32.290Z,2540
2018-07-02T06:21:33.021Z,2552
2018-07-02T06:22:33.740Z,2564
2018-07-02T06:23:34.460Z,2572
2018-07-02T06:24:35.178Z,2588
2018-07-02T06:25:35.897Z,2584
2018-07-02T06:26:36.615Z,2592
2018-07-02T06:27:37.334Z,2596
2018-07-02T06:28:38.052Z,2604
2018-07-02T06:29:38.774Z,2556
2018-07-02T06:30:39.492Z,2616
2018-07-02T06:31:40.210Z,2628
2018-07-02T06:32:40.929Z,2640
2018-07-02T06:33:41.649Z,2632
2018-07-02T06:34:42.367Z,2656
2018-07-02T06:35:43.086Z,2664
2018-07-02T06:36:43.816Z,2680
2018-07-02T06:37:44.548Z,2688
2018-07-02T06:38:45.268Z,2700
2018-07-02T06:39:45.998Z,2712
2018-07-02T06:40:46.715Z,2716
2018-07-02T06:41:47.433Z,2716
2018-07-02T06:42:48.152Z,2728
2018-07-02T06:43:48.872Z,2744
2018-07-02T06:44:49.592Z,2744
2018-07-02T06:45:50.310Z,2756
2018-07-02T06:46:51.039Z,2764
2018-07-02T06:47:51.773Z,2772
2018-07-02T06:48:52.489Z,2784
2018-07-02T06:49:53.210Z,2788
2018-07-02T06:50:53.929Z,2804
2018-07-02T06:51:54.644Z,2820
2018-07-02T06:52:55.364Z,2820
2018-07-02T06:53:56.092Z,2848
2018-07-02T06:54:56.824Z,2832
2018-07-02T06:55:57.544Z,2852
2018-07-02T06:56:58.262Z,2860
2018-07-02T06:57:58.980Z,2872
2018-07-02T06:58:59.700Z,2880
2018-07-02T07:00:00.419Z,2880
2018-07-02T07:01:01.147Z,2884
2018-07-02T07:02:01.876Z,2888
2018-07-02T07:03:02.603Z,2908
2018-07-02T07:04:03.323Z,2952
2018-07-02T07:05:04.059Z,2920
2018-07-02T07:06:04.774Z,2940
2018-07-02T07:07:05.492Z,2944
2018-07-02T07:08:06.210Z,2956
2018-07-02T07:09:06.940Z,2968
2018-07-02T07:10:07.659Z,2960
2018-07-02T07:11:08.382Z,2984
2018-07-02T07:12:09.102Z,3028
2018-07-02T07:13:09.822Z,3016
2018-07-02T07:14:10.542Z,3052
2018-07-02T07:15:11.259Z,3032
2018-07-02T07:16:11.979Z,3048
2018-07-02T07:17:12.709Z,3048
2018-07-02T07:18:13.444Z,3060
2018-07-02T07:19:14.162Z,3072
2018-07-02T07:20:14.895Z,3068
2018-07-02T07:21:15.615Z,3088
2018-07-02T07:22:16.337Z,3100
2018-07-02T07:23:17.057Z,3136
2018-07-02T07:24:17.781Z,3096
2018-07-02T07:25:18.499Z,3140
2018-07-02T07:26:19.219Z,3140
2018-07-02T07:27:19.941Z,3140
2018-07-02T07:28:20.660Z,3144
2018-07-02T07:29:21.384Z,3168
2018-07-02T07:30:22.106Z,3188
2018-07-02T07:31:22.825Z,3192
2018-07-02T07:32:23.542Z,3196
2018-07-02T07:33:24.265Z,3216
2018-07-02T07:34:24.986Z,3232
2018-07-02T07:35:25.720Z,3244
2018-07-02T07:36:26.459Z,3252
2018-07-02T07:37:27.221Z,3276
2018-07-02T07:38:27.913Z,3288
2018-07-02T07:39:28.632Z,3276
2018-07-02T07:40:29.355Z,3324
2018-07-02T07:41:30.074Z,3348
2018-07-02T07:42:30.795Z,3404
2018-07-02T07:43:31.517Z,3436
2018-07-02T07:44:32.240Z,3484
2018-07-02T07:45:32.976Z,3512
2018-07-02T07:46:33.699Z,3560
2018-07-02T07:47:34.425Z,3588
2018-07-02T07:48:35.147Z,3692
2018-07-02T07:49:35.873Z,3740
2018-07-02T07:50:36.597Z,3820
2018-07-02T07:51:37.323Z,3924
2018-07-02T07:52:38.049Z,4068
2018-07-02T07:53:38.776Z,4336
2018-07-02T07:54:39.511Z,4736
2018-07-02T07:55:40.237Z,6520
2018-07-02T07:56:40.960Z,19328
2018-07-02T07:57:41.684Z,37248
2018-07-02T07:58:42.406Z,53984
2018-07-02T07:59:43.132Z,70528
2018-07-02T08:00:43.859Z,78304
2018-07-02T08:01:44.586Z,77504
2018-07-02T08:02:45.323Z,77568
2018-07-02T08:03:46.094Z,78048
2018-07-02T08:04:46.776Z,79296
2018-07-02T08:05:47.502Z,80256
2018-07-02T08:06:48.244Z,80352
2018-07-02T08:07:48.972Z,76320
2018-07-02T08:08:49.703Z,76064
2018-07-02T08:09:50.430Z,76096
2018-07-02T08:10:51.173Z,74336
2018-07-02T08:11:51.903Z,76672
2018-07-02T08:12:52.631Z,77888
2018-07-02T08:13:53.363Z,75200
2018-07-02T08:14:54.094Z,73696
2018-07-02T08:15:54.825Z,71616
2018-07-02T08:16:55.558Z,53216
2018-07-02T08:17:56.291Z,26336
2018-07-02T08:18:57.034Z,14264
2018-07-02T08:19:57.756Z,11940
2018-07-02T08:20:58.487Z,10784
2018-07-02T08:21:59.234Z,10108
2018-07-02T08:22:59.964Z,9608
2018-07-02T08:24:00.697Z,9324
2018-07-02T08:25:01.426Z,9156
2018-07-02T08:26:02.157Z,8964
2018-07-02T08:27:02.891Z,8896
2018-07-02T08:28:03.634Z,8924
2018-07-02T08:29:04.378Z,9044
2018-07-02T08:30:05.111Z,9204
2018-07-02T08:31:05.843Z,9376
2018-07-02T08:32:06.574Z,9828
2018-07-02T08:33:07.335Z,10236
2018-07-02T08:34:08.052Z,10872
2018-07-02T08:35:08.790Z,11820
2018-07-02T08:36:09.520Z,13592
2018-07-02T08:37:10.253Z,21376
2018-07-02T08:38:10.986Z,53216
2018-07-02T08:39:11.719Z,78592
2018-07-02T08:40:12.453Z,78400
2018-07-02T08:41:13.193Z,85792
2018-07-02T08:42:13.923Z,85664
2018-07-02T08:43:14.655Z,90816
2018-07-02T08:44:15.401Z,89952
2018-07-02T08:45:16.134Z,90368
2018-07-02T08:46:16.883Z,91040
2018-07-02T08:47:17.618Z,87904
2018-07-02T08:48:18.351Z,87360
2018-07-02T08:49:19.089Z,88448
2018-07-02T08:50:19.836Z,89984
2018-07-02T08:51:20.585Z,87136
2018-07-02T08:52:21.322Z,83136
2018-07-02T08:53:22.059Z,88832
2018-07-02T08:54:22.799Z,87296
2018-07-02T08:55:23.541Z,91840
2018-07-02T08:56:24.278Z,92160
2018-07-02T08:57:25.020Z,92768
2018-07-02T08:58:25.767Z,92480
2018-07-02T08:59:26.500Z,85920
2018-07-02T09:00:27.253Z,90208
2018-07-02T09:01:27.998Z,88416
2018-07-02T09:02:28.740Z,85824
2018-07-02T09:03:29.496Z,91744
2018-07-02T09:04:30.239Z,89344
2018-07-02T09:05:30.979Z,89376
2018-07-02T09:06:31.724Z,92224
2018-07-02T09:07:32.466Z,88832
2018-07-02T09:08:33.220Z,87552
2018-07-02T09:09:33.973Z,94688
2018-07-02T09:10:34.709Z,96032
2018-07-02T09:11:35.456Z,96352
2018-07-02T09:12:36.197Z,95872
2018-07-02T09:13:36.937Z,97920
2018-07-02T09:14:37.712Z,97440
2018-07-02T09:15:38.417Z,95840
2018-07-02T09:16:39.158Z,92992
2018-07-02T09:17:39.926Z,96640
2018-07-02T09:18:40.644Z,95680
2018-07-02T09:19:41.382Z,91552
2018-07-02T09:20:42.168Z,90656
2018-07-02T09:21:42.873Z,91840
2018-07-02T09:22:43.615Z,90400
2018-07-02T09:23:44.380Z,84416
2018-07-02T09:24:45.103Z,85664
2018-07-02T09:25:45.838Z,88960
2018-07-02T09:26:46.579Z,88352
2018-07-02T09:27:47.322Z,90208
2018-07-02T09:28:48.064Z,95552
2018-07-02T09:29:48.987Z,93696
2018-07-02T09:30:49.547Z,100096
2018-07-02T09:31:50.301Z,90528
2018-07-02T09:32:51.043Z,96608
2018-07-02T09:33:51.785Z,100672
2018-07-02T09:34:52.528Z,90528
2018-07-02T09:35:53.268Z,89152
2018-07-02T09:36:54.023Z,95744
2018-07-02T09:37:54.766Z,91584
2018-07-02T09:38:55.506Z,92032
2018-07-02T09:39:56.249Z,98208
2018-07-02T09:40:56.991Z,97664
2018-07-02T09:41:57.730Z,96800
2018-07-02T09:42:58.486Z,93184
2018-07-02T09:43:59.235Z,94944
2018-07-02T09:44:59.973Z,98624
2018-07-02T09:46:00.714Z,95872
2018-07-02T09:47:01.465Z,97152
2018-07-02T09:48:02.206Z,95264
2018-07-02T09:49:02.946Z,89984
2018-07-02T09:50:03.684Z,91872
2018-07-02T09:51:04.422Z,92000
2018-07-02T09:52:05.164Z,95104
2018-07-02T09:53:06.128Z,90464
2018-07-02T09:54:06.641Z,93024
2018-07-02T09:55:07.381Z,96480
2018-07-02T09:56:08.138Z,94720
2018-07-02T09:57:08.870Z,93728
2018-07-02T09:58:09.621Z,94752
2018-07-02T09:59:10.360Z,94080
2018-07-02T10:00:11.098Z,95552
2018-07-02T10:01:11.838Z,103936
2018-07-02T10:02:12.577Z,102592
2018-07-02T10:03:13.319Z,100448
2018-07-02T10:04:14.072Z,99424
2018-07-02T10:05:14.813Z,100320
2018-07-02T10:06:15.612Z,112352
2018-07-02T10:07:16.299Z,109120
2018-07-02T10:08:17.040Z,96576
2018-07-02T10:09:17.794Z,96480
2018-07-02T10:10:18.530Z,94528
2018-07-02T10:11:19.267Z,98688
2018-07-02T10:12:20.019Z,99744
2018-07-02T10:13:20.769Z,96160
2018-07-02T10:14:21.508Z,96352
2018-07-02T10:15:22.259Z,100704
2018-07-02T10:16:22.998Z,100320
2018-07-02T10:17:23.736Z,102400
2018-07-02T10:18:24.474Z,102432
2018-07-02T10:19:25.211Z,98464
2018-07-02T10:20:25.988Z,93920
2018-07-02T10:21:26.711Z,90912
2018-07-02T10:22:27.453Z,92512
2018-07-02T10:23:28.230Z,89120
2018-07-02T10:25:37.933Z,82592
2018-07-02T10:26:38.670Z,80512
2018-07-02T10:27:39.423Z,90240
2018-07-02T10:28:40.160Z,81120
2018-07-02T10:29:40.898Z,84064
2018-07-02T10:30:41.677Z,90208
2018-07-02T10:31:42.392Z,87040
2018-07-02T10:32:43.138Z,95072
2018-07-02T10:33:43.887Z,96992
2018-07-02T10:34:44.672Z,99712
2018-07-02T10:35:45.376Z,105504
2018-07-02T10:36:46.129Z,97984
2018-07-02T10:37:46.866Z,99264
2018-07-02T10:38:47.605Z,101504
2018-07-02T10:39:48.345Z,95616
2018-07-02T10:40:49.096Z,98400
2018-07-02T10:41:49.835Z,104800
2018-07-02T10:42:50.577Z,101312
2018-07-02T10:43:51.313Z,101984
2018-07-02T10:44:52.055Z,104384
2018-07-02T10:46:54.521Z,100736
2018-07-02T10:48:47.926Z,96640
2018-07-02T10:49:48.676Z,98304
2018-07-02T10:50:49.425Z,100896
2018-07-02T10:51:50.176Z,102240
2018-07-02T10:52:50.918Z,97280
2018-07-02T10:53:51.649Z,104320
2018-07-02T10:54:52.402Z,100160
2018-07-02T10:55:53.138Z,94464
2018-07-02T10:56:53.878Z,108032
2018-07-02T10:57:54.627Z,93952
2018-07-02T10:58:55.365Z,97984
2018-07-02T10:59:56.103Z,105312
2018-07-02T11:00:56.842Z,88160
2018-07-02T11:01:57.580Z,83648
2018-07-02T11:02:58.317Z,98464
2018-07-02T11:03:59.054Z,89984
2018-07-02T11:04:59.803Z,89408
2018-07-02T11:06:00.544Z,101984
2018-07-02T11:07:01.283Z,94272
2018-07-02T11:08:02.021Z,96768
2018-07-02T11:09:02.758Z,96576
2018-07-02T11:10:03.496Z,91168
2018-07-02T11:11:04.281Z,103104
2018-07-02T11:12:04.978Z,101984
2018-07-02T11:13:05.715Z,98976
2018-07-02T11:14:06.455Z,100320
2018-07-02T11:15:07.192Z,99136
2018-07-02T11:16:07.931Z,108224
2018-07-02T11:17:08.699Z,104704
2018-07-02T11:18:09.414Z,101504
2018-07-02T11:19:10.164Z,104960
2018-07-02T11:20:10.903Z,100384
2018-07-02T11:21:11.641Z,100544
2018-07-02T11:22:12.382Z,102528
2018-07-02T11:23:13.138Z,95616
2018-07-02T11:24:13.873Z,96608
2018-07-02T11:25:14.610Z,102464
2018-07-02T11:26:15.351Z,100032
2018-07-02T11:27:16.090Z,103072
2018-07-02T11:28:16.829Z,104544
2018-07-02T11:29:17.567Z,100992
2018-07-02T11:30:18.307Z,98528
2018-07-02T11:31:19.047Z,100576
2018-07-02T11:32:19.786Z,105536
2018-07-02T11:33:20.525Z,105216
2018-07-02T11:34:21.266Z,98976
2018-07-02T11:35:22.004Z,97600
2018-07-02T11:36:22.747Z,99360
2018-07-02T11:37:23.516Z,97664
2018-07-02T11:38:24.219Z,95296
2018-07-02T11:39:24.954Z,99680
2018-07-02T11:40:25.702Z,99424
2018-07-02T11:41:26.442Z,99520
2018-07-02T11:42:27.182Z,97696
2018-07-02T11:43:27.919Z,89952
2018-07-02T11:44:28.656Z,93280
2018-07-02T11:45:29.395Z,97024
2018-07-02T11:46:30.134Z,92384
2018-07-02T11:47:30.872Z,91328
2018-07-02T11:48:31.613Z,93920
2018-07-02T11:49:32.352Z,95136
2018-07-02T11:50:33.103Z,96352
2018-07-02T11:51:33.852Z,100928
2018-07-02T11:52:34.597Z,94304
2018-07-02T11:53:35.348Z,98848
2018-07-02T11:54:36.088Z,99136
2018-07-02T11:55:36.841Z,94688
2018-07-02T11:56:37.582Z,95648
2018-07-02T11:57:38.319Z,90656
2018-07-02T11:58:39.098Z,90784
2018-07-02T11:59:39.838Z,96032
2018-07-02T12:00:40.591Z,93504
2018-07-02T12:01:41.327Z,92032
2018-07-02T12:02:42.066Z,90272
2018-07-02T12:03:42.817Z,88480
2018-07-02T12:04:43.555Z,89952
2018-07-02T12:05:44.324Z,92576
2018-07-02T12:06:45.042Z,92768
2018-07-02T12:07:45.781Z,90848
2018-07-02T12:08:46.520Z,94656
2018-07-02T12:09:47.272Z,98432
2018-07-02T12:10:48.011Z,99968
2018-07-02T12:11:48.749Z,99104
2018-07-02T12:12:49.503Z,99360
2018-07-02T12:13:50.258Z,100864
2018-07-02T12:14:50.999Z,101472
2018-07-02T12:15:51.740Z,102208
2018-07-02T12:16:52.489Z,96544
2018-07-02T12:17:53.229Z,95168
2018-07-02T12:18:53.970Z,97088
2018-07-02T12:19:54.709Z,93984
2018-07-02T12:20:55.460Z,97728
2018-07-02T12:21:56.213Z,95424
2018-07-02T12:22:56.959Z,89760
2018-07-02T12:23:57.688Z,94112
2018-07-02T12:24:58.430Z,100160
2018-07-02T12:25:59.168Z,93504
2018-07-02T12:26:59.908Z,94880
2018-07-02T12:28:00.650Z,101056
2018-07-02T12:29:01.390Z,98592
2018-07-02T12:30:02.130Z,93280
2018-07-02T12:31:02.868Z,96736
2018-07-02T12:32:03.614Z,101440
2018-07-02T12:33:04.345Z,96512
2018-07-02T12:34:05.086Z,93184
2018-07-02T12:35:05.824Z,97152
2018-07-02T12:36:06.563Z,95808
2018-07-02T12:37:07.314Z,88064
2018-07-02T12:38:08.052Z,85632
2018-07-02T12:39:08.796Z,89120
2018-07-02T12:40:09.532Z,84832
2018-07-02T12:41:10.280Z,88000
2018-07-02T12:42:11.012Z,85824
2018-07-02T12:43:11.750Z,88288
2018-07-02T12:44:12.491Z,96000
2018-07-02T12:45:13.229Z,91296
2018-07-02T12:46:13.969Z,89408
2018-07-02T12:47:14.708Z,92608
2018-07-02T12:48:15.458Z,96000
2018-07-02T12:49:16.215Z,90272
2018-07-02T12:50:16.964Z,93312
2018-07-02T12:51:17.703Z,92480
2018-07-02T12:52:18.454Z,89088
2018-07-02T12:53:19.192Z,93120
2018-07-02T12:54:19.979Z,93376
2018-07-02T12:55:20.669Z,89664
2018-07-02T12:56:21.408Z,91648
2018-07-02T12:57:22.147Z,88640
2018-07-02T12:58:22.887Z,95456
2018-07-02T12:59:23.624Z,92608
2018-07-02T13:00:24.364Z,85088
2018-07-02T13:01:25.101Z,89664
2018-07-02T13:02:25.839Z,91296
2018-07-02T13:03:26.578Z,85888
2018-07-02T13:04:27.321Z,85440
2018-07-02T13:05:28.057Z,90048
2018-07-02T13:06:28.796Z,85920
2018-07-02T13:07:29.547Z,87040
2018-07-02T13:08:30.295Z,101568
2018-07-02T13:09:31.031Z,97568
2018-07-02T13:10:31.770Z,84064
2018-07-02T13:11:32.522Z,91552
2018-07-02T13:12:33.261Z,95520
2018-07-02T13:13:34.020Z,85856
2018-07-02T13:14:34.734Z,87232
2018-07-02T13:15:35.474Z,91744
2018-07-02T13:16:36.212Z,90336
2018-07-02T13:17:36.950Z,84768
2018-07-02T13:18:37.688Z,81088
2018-07-02T13:19:38.427Z,89920
2018-07-02T13:20:39.206Z,87968
2018-07-02T13:21:39.915Z,81952
2018-07-02T13:22:40.655Z,90432
2018-07-02T13:23:41.406Z,88224
2018-07-02T13:24:42.156Z,83488
2018-07-02T13:25:42.897Z,83712
2018-07-02T13:26:43.636Z,87616
2018-07-02T13:27:44.384Z,84192
2018-07-02T13:28:45.138Z,84096
2018-07-02T13:29:45.877Z,85664
2018-07-02T13:30:46.612Z,84512
2018-07-02T13:31:47.348Z,83456
2018-07-02T13:32:48.086Z,86304
2018-07-02T13:33:48.822Z,83616
2018-07-02T13:34:49.574Z,82560
2018-07-02T13:35:50.324Z,86400
2018-07-02T13:36:51.060Z,85024
2018-07-02T13:37:51.800Z,84608
2018-07-02T13:38:52.539Z,85280